sensor_id;sensor_type;location;lat;lon;timestamp;P1;durP1;ratioP1;P2;durP2;ratioP2
28311;SDS011;15572;48.810;9.148;2023-03-01T00:03:59;24.97;;;14.30;;
28311;SDS011;15572;48.810;9.148;2023-03-01T00:08:56;26.90;;;14.13;;
28311;SDS011;15572;48.810;9.148;2023-03-01T00:13:53;22.60;;;13.50;;
28311;SDS011;15572;48.810;9.148;2023-03-01T00:18:53;27.90;;;13.90;;
28311;SDS011;15572;48.810;9.148;2023-03-01T00:23:50;25.73;;;13.60;;
28311;SDS011;15572;48.810;9.148;2023-03-01T00:28:47;24.00;;;14.17;;
28311;SDS011;15572;48.810;9.148;2023-03-01T00:33:44;24.83;;;14.10;;
28311;SDS011;15572;48.810;9.148;2023-03-01T00:38:43;26.20;;;14.00;;
28311;SDS011;15572;48.810;9.148;2023-03-01T00:43:41;29.17;;;14.60;;
28311;SDS011;15572;48.810;9.148;2023-03-01T00:48:37;27.90;;;14.63;;
28311;SDS011;15572;48.810;9.148;2023-03-01T00:53:34;31.57;;;14.43;;
28311;SDS011;15572;48.810;9.148;2023-03-01T00:58:33;29.10;;;14.30;;
28311;SDS011;15572;48.810;9.148;2023-03-01T01:03:29;25.90;;;14.37;;
28311;SDS011;15572;48.810;9.148;2023-03-01T01:08:26;28.60;;;15.80;;
28311;SDS011;15572;48.810;9.148;2023-03-01T01:13:22;30.07;;;14.33;;
28311;SDS011;15572;48.810;9.148;2023-03-01T01:18:20;25.37;;;13.93;;
28311;SDS011;15572;48.810;9.148;2023-03-01T01:23:16;24.97;;;13.50;;
28311;SDS011;15572;48.810;9.148;2023-03-01T01:28:13;29.37;;;15.57;;
28311;SDS011;15572;48.810;9.148;2023-03-01T01:33:09;25.20;;;13.90;;
28311;SDS011;15572;48.810;9.148;2023-03-01T01:38:07;29.00;;;14.30;;
28311;SDS011;15572;48.810;9.148;2023-03-01T01:43:20;27.47;;;15.13;;
28311;SDS011;15572;48.810;9.148;2023-03-01T01:48:19;27.17;;;14.90;;
28311;SDS011;15572;48.810;9.148;2023-03-01T01:53:19;27.50;;;14.53;;
28311;SDS011;15572;48.810;9.148;2023-03-01T01:58:18;25.57;;;15.00;;
28311;SDS011;15572;48.810;9.148;2023-03-01T02:03:18;28.10;;;15.07;;
28311;SDS011;15572;48.810;9.148;2023-03-01T02:08:20;26.17;;;13.20;;
28311;SDS011;15572;48.810;9.148;2023-03-01T02:13:19;29.53;;;15.60;;
28311;SDS011;15572;48.810;9.148;2023-03-01T02:18:17;28.53;;;13.87;;
28311;SDS011;15572;48.810;9.148;2023-03-01T02:23:16;27.03;;;12.77;;
28311;SDS011;15572;48.810;9.148;2023-03-01T02:28:22;29.50;;;14.43;;
28311;SDS011;15572;48.810;9.148;2023-03-01T02:33:21;26.63;;;14.57;;
28311;SDS011;15572;48.810;9.148;2023-03-01T02:38:17;26.33;;;14.23;;
28311;SDS011;15572;48.810;9.148;2023-03-01T02:43:14;28.77;;;15.53;;
28311;SDS011;15572;48.810;9.148;2023-03-01T02:48:15;26.07;;;14.63;;
28311;SDS011;15572;48.810;9.148;2023-03-01T02:53:13;31.10;;;14.57;;
28311;SDS011;15572;48.810;9.148;2023-03-01T02:58:15;27.87;;;15.60;;
28311;SDS011;15572;48.810;9.148;2023-03-01T03:03:12;26.03;;;13.20;;
28311;SDS011;15572;48.810;9.148;2023-03-01T03:08:12;24.97;;;14.07;;
28311;SDS011;15572;48.810;9.148;2023-03-01T03:13:12;27.33;;;15.87;;
28311;SDS011;15572;48.810;9.148;2023-03-01T03:18:10;25.60;;;14.50;;
28311;SDS011;15572;48.810;9.148;2023-03-01T03:23:08;26.10;;;14.40;;
28311;SDS011;15572;48.810;9.148;2023-03-01T03:28:06;26.90;;;13.43;;
28311;SDS011;15572;48.810;9.148;2023-03-01T03:33:05;25.80;;;12.77;;
28311;SDS011;15572;48.810;9.148;2023-03-01T03:38:04;26.27;;;13.50;;
28311;SDS011;15572;48.810;9.148;2023-03-01T03:43:05;23.27;;;12.27;;
28311;SDS011;15572;48.810;9.148;2023-03-01T03:48:05;32.47;;;14.33;;
28311;SDS011;15572;48.810;9.148;2023-03-01T03:53:03;29.53;;;14.93;;
28311;SDS011;15572;48.810;9.148;2023-03-01T03:58:02;30.50;;;16.30;;
28311;SDS011;15572;48.810;9.148;2023-03-01T04:03:03;28.47;;;14.37;;
28311;SDS011;15572;48.810;9.148;2023-03-01T04:07:59;29.10;;;15.50;;
28311;SDS011;15572;48.810;9.148;2023-03-01T04:13:01;29.10;;;15.67;;
28311;SDS011;15572;48.810;9.148;2023-03-01T04:17:58;28.00;;;15.43;;
28311;SDS011;15572;48.810;9.148;2023-03-01T04:23:01;26.97;;;15.63;;
28311;SDS011;15572;48.810;9.148;2023-03-01T04:28:05;28.30;;;15.53;;
28311;SDS011;15572;48.810;9.148;2023-03-01T04:33:02;30.13;;;16.60;;
28311;SDS011;15572;48.810;9.148;2023-03-01T04:38:01;31.83;;;17.47;;
28311;SDS011;15572;48.810;9.148;2023-03-01T04:42:58;29.77;;;16.60;;
28311;SDS011;15572;48.810;9.148;2023-03-01T04:47:54;31.13;;;17.50;;
28311;SDS011;15572;48.810;9.148;2023-03-01T04:52:53;33.20;;;16.67;;
28311;SDS011;15572;48.810;9.148;2023-03-01T04:57:52;27.63;;;15.03;;
28311;SDS011;15572;48.810;9.148;2023-03-01T05:02:50;28.60;;;16.30;;
28311;SDS011;15572;48.810;9.148;2023-03-01T05:07:49;30.60;;;16.07;;
28311;SDS011;15572;48.810;9.148;2023-03-01T05:12:45;30.37;;;16.00;;
28311;SDS011;15572;48.810;9.148;2023-03-01T05:17:43;30.23;;;16.70;;
28311;SDS011;15572;48.810;9.148;2023-03-01T05:22:41;30.20;;;17.27;;
28311;SDS011;15572;48.810;9.148;2023-03-01T05:27:37;32.93;;;16.40;;
28311;SDS011;15572;48.810;9.148;2023-03-01T05:32:34;32.80;;;17.60;;
28311;SDS011;15572;48.810;9.148;2023-03-01T05:37:31;29.40;;;17.03;;
28311;SDS011;15572;48.810;9.148;2023-03-01T05:42:28;31.53;;;17.33;;
28311;SDS011;15572;48.810;9.148;2023-03-01T05:47:25;29.60;;;17.97;;
28311;SDS011;15572;48.810;9.148;2023-03-01T05:52:21;30.47;;;16.93;;
28311;SDS011;15572;48.810;9.148;2023-03-01T05:57:19;32.90;;;17.47;;
28311;SDS011;15572;48.810;9.148;2023-03-01T06:02:16;32.40;;;17.17;;
28311;SDS011;15572;48.810;9.148;2023-03-01T06:07:13;36.13;;;17.93;;
28311;SDS011;15572;48.810;9.148;2023-03-01T06:12:09;32.67;;;17.50;;
28311;SDS011;15572;48.810;9.148;2023-03-01T06:17:07;31.10;;;16.83;;
28311;SDS011;15572;48.810;9.148;2023-03-01T06:22:04;28.80;;;17.40;;
28311;SDS011;15572;48.810;9.148;2023-03-01T06:27:00;28.83;;;17.27;;
28311;SDS011;15572;48.810;9.148;2023-03-01T06:31:57;28.27;;;17.57;;
28311;SDS011;15572;48.810;9.148;2023-03-01T06:36:55;31.60;;;18.33;;
28311;SDS011;15572;48.810;9.148;2023-03-01T06:41:54;33.57;;;17.33;;
28311;SDS011;15572;48.810;9.148;2023-03-01T06:46:51;32.57;;;18.17;;
28311;SDS011;15572;48.810;9.148;2023-03-01T06:51:47;41.40;;;19.20;;
28311;SDS011;15572;48.810;9.148;2023-03-01T06:56:47;52.93;;;20.80;;
28311;SDS011;15572;48.810;9.148;2023-03-01T07:01:44;32.83;;;15.90;;
28311;SDS011;15572;48.810;9.148;2023-03-01T07:06:40;37.40;;;18.53;;
28311;SDS011;15572;48.810;9.148;2023-03-01T07:11:39;30.77;;;17.60;;
28311;SDS011;15572;48.810;9.148;2023-03-01T07:16:37;30.63;;;17.47;;
28311;SDS011;15572;48.810;9.148;2023-03-01T07:21:34;32.73;;;17.73;;
28311;SDS011;15572;48.810;9.148;2023-03-01T07:26:30;32.57;;;17.43;;
28311;SDS011;15572;48.810;9.148;2023-03-01T07:31:27;34.97;;;18.60;;
28311;SDS011;15572;48.810;9.148;2023-03-01T07:36:25;32.67;;;18.40;;
28311;SDS011;15572;48.810;9.148;2023-03-01T07:41:21;32.17;;;17.80;;
28311;SDS011;15572;48.810;9.148;2023-03-01T07:46:18;31.43;;;18.10;;
28311;SDS011;15572;48.810;9.148;2023-03-01T07:51:14;31.27;;;17.73;;
28311;SDS011;15572;48.810;9.148;2023-03-01T07:56:12;36.10;;;19.27;;
28311;SDS011;15572;48.810;9.148;2023-03-01T08:01:12;40.67;;;18.70;;
28311;SDS011;15572;48.810;9.148;2023-03-01T08:06:10;38.03;;;18.97;;
28311;SDS011;15572;48.810;9.148;2023-03-01T08:11:10;31.03;;;18.37;;
28311;SDS011;15572;48.810;9.148;2023-03-01T08:16:10;33.00;;;18.63;;
28311;SDS011;15572;48.810;9.148;2023-03-01T08:21:09;37.47;;;19.33;;
28311;SDS011;15572;48.810;9.148;2023-03-01T08:26:07;33.17;;;18.90;;
28311;SDS011;15572;48.810;9.148;2023-03-01T08:31:14;36.03;;;19.63;;
28311;SDS011;15572;48.810;9.148;2023-03-01T08:36:12;35.10;;;19.73;;
28311;SDS011;15572;48.810;9.148;2023-03-01T08:41:08;34.30;;;18.13;;
28311;SDS011;15572;48.810;9.148;2023-03-01T08:46:05;35.27;;;19.27;;
28311;SDS011;15572;48.810;9.148;2023-03-01T08:51:08;35.70;;;19.83;;
28311;SDS011;15572;48.810;9.148;2023-03-01T08:56:05;33.83;;;19.27;;
28311;SDS011;15572;48.810;9.148;2023-03-01T09:01:06;34.20;;;18.80;;
28311;SDS011;15572;48.810;9.148;2023-03-01T09:06:03;36.57;;;19.10;;
28311;SDS011;15572;48.810;9.148;2023-03-01T09:11:03;37.67;;;19.67;;
28311;SDS011;15572;48.810;9.148;2023-03-01T09:16:01;38.23;;;20.03;;
28311;SDS011;15572;48.810;9.148;2023-03-01T09:21:02;34.40;;;19.47;;
28311;SDS011;15572;48.810;9.148;2023-03-01T09:26:03;33.73;;;18.83;;
28311;SDS011;15572;48.810;9.148;2023-03-01T09:31:01;33.77;;;18.70;;
28311;SDS011;15572;48.810;9.148;2023-03-01T09:35:58;38.03;;;19.37;;
28311;SDS011;15572;48.810;9.148;2023-03-01T09:40:54;36.53;;;19.30;;
28311;SDS011;15572;48.810;9.148;2023-03-01T09:45:53;37.43;;;19.20;;
28311;SDS011;15572;48.810;9.148;2023-03-01T09:50:51;30.73;;;18.07;;
28311;SDS011;15572;48.810;9.148;2023-03-01T09:55:49;36.47;;;19.63;;
28311;SDS011;15572;48.810;9.148;2023-03-01T10:00:50;33.17;;;18.60;;
28311;SDS011;15572;48.810;9.148;2023-03-01T10:05:50;34.50;;;18.57;;
28311;SDS011;15572;48.810;9.148;2023-03-01T10:10:55;34.53;;;18.87;;
28311;SDS011;15572;48.810;9.148;2023-03-01T10:15:53;38.47;;;20.03;;
28311;SDS011;15572;48.810;9.148;2023-03-01T10:20:55;34.50;;;19.40;;
28311;SDS011;15572;48.810;9.148;2023-03-01T10:25:56;32.97;;;18.43;;
28311;SDS011;15572;48.810;9.148;2023-03-01T10:31:05;33.67;;;18.87;;
28311;SDS011;15572;48.810;9.148;2023-03-01T10:36:11;31.93;;;18.50;;
28311;SDS011;15572;48.810;9.148;2023-03-01T10:41:07;32.03;;;18.53;;
28311;SDS011;15572;48.810;9.148;2023-03-01T10:46:04;35.33;;;20.37;;
28311;SDS011;15572;48.810;9.148;2023-03-01T10:51:20;31.90;;;18.73;;
28311;SDS011;15572;48.810;9.148;2023-03-01T10:56:18;29.30;;;18.17;;
28311;SDS011;15572;48.810;9.148;2023-03-01T11:06:31;29.23;;;17.90;;
28311;SDS011;15572;48.810;9.148;2023-03-01T11:11:30;32.57;;;18.23;;
28311;SDS011;15572;48.810;9.148;2023-03-01T11:16:29;34.50;;;18.73;;
28311;SDS011;15572;48.810;9.148;2023-03-01T11:21:28;28.73;;;17.57;;
28311;SDS011;15572;48.810;9.148;2023-03-01T11:26:30;29.80;;;17.37;;
28311;SDS011;15572;48.810;9.148;2023-03-01T11:31:30;25.43;;;16.47;;
28311;SDS011;15572;48.810;9.148;2023-03-01T11:36:29;28.23;;;17.97;;
28311;SDS011;15572;48.810;9.148;2023-03-01T11:41:31;26.13;;;16.80;;
28311;SDS011;15572;48.810;9.148;2023-03-01T11:46:34;26.10;;;16.60;;
28311;SDS011;15572;48.810;9.148;2023-03-01T11:51:44;25.57;;;16.77;;
28311;SDS011;15572;48.810;9.148;2023-03-01T11:56:49;28.30;;;16.50;;
28311;SDS011;15572;48.810;9.148;2023-03-01T12:01:54;27.50;;;16.97;;
28311;SDS011;15572;48.810;9.148;2023-03-01T12:07:11;25.70;;;16.57;;
28311;SDS011;15572;48.810;9.148;2023-03-01T12:12:23;25.37;;;16.43;;
28311;SDS011;15572;48.810;9.148;2023-03-01T12:17:35;23.00;;;15.03;;
28311;SDS011;15572;48.810;9.148;2023-03-01T12:22:46;23.77;;;14.97;;
28311;SDS011;15572;48.810;9.148;2023-03-01T12:28:03;22.40;;;14.90;;
28311;SDS011;15572;48.810;9.148;2023-03-01T12:33:16;22.67;;;14.67;;
28311;SDS011;15572;48.810;9.148;2023-03-01T12:38:33;23.33;;;14.50;;
28311;SDS011;15572;48.810;9.148;2023-03-01T12:43:41;23.77;;;15.67;;
28311;SDS011;15572;48.810;9.148;2023-03-01T12:48:49;24.50;;;15.80;;
28311;SDS011;15572;48.810;9.148;2023-03-01T12:53:52;24.20;;;15.33;;
28311;SDS011;15572;48.810;9.148;2023-03-01T12:58:53;21.63;;;15.83;;
28311;SDS011;15572;48.810;9.148;2023-03-01T13:04:00;27.20;;;16.47;;
28311;SDS011;15572;48.810;9.148;2023-03-01T13:09:06;22.97;;;15.37;;
28311;SDS011;15572;48.810;9.148;2023-03-01T13:19:43;25.80;;;16.40;;
28311;SDS011;15572;48.810;9.148;2023-03-01T13:25:02;24.00;;;15.73;;
28311;SDS011;15572;48.810;9.148;2023-03-01T13:35:41;23.30;;;16.27;;
28311;SDS011;15572;48.810;9.148;2023-03-01T13:40:59;24.53;;;17.00;;
28311;SDS011;15572;48.810;9.148;2023-03-01T13:45:56;25.77;;;16.40;;
28311;SDS011;15572;48.810;9.148;2023-03-01T13:50:54;26.40;;;16.67;;
28311;SDS011;15572;48.810;9.148;2023-03-01T13:55:55;24.00;;;16.30;;
28311;SDS011;15572;48.810;9.148;2023-03-01T14:00:57;25.23;;;15.77;;
28311;SDS011;15572;48.810;9.148;2023-03-01T14:05:59;25.43;;;16.83;;
28311;SDS011;15572;48.810;9.148;2023-03-01T14:11:03;25.47;;;17.03;;
28311;SDS011;15572;48.810;9.148;2023-03-01T14:16:20;25.77;;;17.03;;
28311;SDS011;15572;48.810;9.148;2023-03-01T14:21:28;23.73;;;16.20;;
28311;SDS011;15572;48.810;9.148;2023-03-01T14:26:27;28.13;;;17.93;;
28311;SDS011;15572;48.810;9.148;2023-03-01T14:31:31;25.30;;;17.20;;
28311;SDS011;15572;48.810;9.148;2023-03-01T14:36:31;25.63;;;17.27;;
28311;SDS011;15572;48.810;9.148;2023-03-01T14:41:32;29.30;;;18.40;;
28311;SDS011;15572;48.810;9.148;2023-03-01T14:46:31;28.67;;;18.23;;
28311;SDS011;15572;48.810;9.148;2023-03-01T14:51:29;29.43;;;17.43;;
28311;SDS011;15572;48.810;9.148;2023-03-01T14:56:26;28.33;;;18.37;;
28311;SDS011;15572;48.810;9.148;2023-03-01T15:01:24;28.00;;;17.37;;
28311;SDS011;15572;48.810;9.148;2023-03-01T15:06:21;27.07;;;17.57;;
28311;SDS011;15572;48.810;9.148;2023-03-01T15:11:19;25.73;;;16.67;;
28311;SDS011;15572;48.810;9.148;2023-03-01T15:16:19;27.30;;;17.57;;
28311;SDS011;15572;48.810;9.148;2023-03-01T15:21:21;28.33;;;17.93;;
28311;SDS011;15572;48.810;9.148;2023-03-01T15:26:23;27.87;;;17.83;;
28311;SDS011;15572;48.810;9.148;2023-03-01T15:31:22;27.37;;;17.43;;
28311;SDS011;15572;48.810;9.148;2023-03-01T15:36:32;27.00;;;16.87;;
28311;SDS011;15572;48.810;9.148;2023-03-01T15:41:37;27.50;;;17.10;;
28311;SDS011;15572;48.810;9.148;2023-03-01T15:46:45;29.07;;;17.60;;
28311;SDS011;15572;48.810;9.148;2023-03-01T15:51:44;24.87;;;16.83;;
28311;SDS011;15572;48.810;9.148;2023-03-01T15:56:41;26.43;;;17.50;;
28311;SDS011;15572;48.810;9.148;2023-03-01T16:01:39;26.10;;;16.60;;
28311;SDS011;15572;48.810;9.148;2023-03-01T16:06:36;29.13;;;16.87;;
28311;SDS011;15572;48.810;9.148;2023-03-01T16:11:35;26.30;;;17.47;;
28311;SDS011;15572;48.810;9.148;2023-03-01T16:16:34;23.57;;;16.17;;
28311;SDS011;15572;48.810;9.148;2023-03-01T16:21:30;28.93;;;16.20;;
28311;SDS011;15572;48.810;9.148;2023-03-01T16:26:27;26.87;;;15.80;;
28311;SDS011;15572;48.810;9.148;2023-03-01T16:31:24;26.23;;;16.63;;
28311;SDS011;15572;48.810;9.148;2023-03-01T16:36:22;26.77;;;15.97;;
28311;SDS011;15572;48.810;9.148;2023-03-01T16:41:20;25.50;;;15.97;;
28311;SDS011;15572;48.810;9.148;2023-03-01T16:46:19;25.43;;;16.07;;
28311;SDS011;15572;48.810;9.148;2023-03-01T16:51:19;25.27;;;15.33;;
28311;SDS011;15572;48.810;9.148;2023-03-01T16:56:16;24.93;;;16.00;;
28311;SDS011;15572;48.810;9.148;2023-03-01T17:01:14;26.87;;;17.17;;
28311;SDS011;15572;48.810;9.148;2023-03-01T17:06:13;26.77;;;16.10;;
28311;SDS011;15572;48.810;9.148;2023-03-01T17:11:13;28.67;;;16.03;;
28311;SDS011;15572;48.810;9.148;2023-03-01T17:16:11;27.77;;;16.57;;
28311;SDS011;15572;48.810;9.148;2023-03-01T17:21:09;27.63;;;16.70;;
28311;SDS011;15572;48.810;9.148;2023-03-01T17:26:07;28.97;;;16.43;;
28311;SDS011;15572;48.810;9.148;2023-03-01T17:31:05;28.20;;;16.80;;
28311;SDS011;15572;48.810;9.148;2023-03-01T17:36:03;32.13;;;16.50;;
28311;SDS011;15572;48.810;9.148;2023-03-01T17:40:59;26.53;;;15.43;;
28311;SDS011;15572;48.810;9.148;2023-03-01T17:45:56;29.57;;;16.27;;
28311;SDS011;15572;48.810;9.148;2023-03-01T17:50:54;26.40;;;15.47;;
28311;SDS011;15572;48.810;9.148;2023-03-01T17:55:57;27.63;;;17.10;;
28311;SDS011;15572;48.810;9.148;2023-03-01T18:00:55;25.97;;;15.17;;
28311;SDS011;15572;48.810;9.148;2023-03-01T18:06:02;31.47;;;17.27;;
28311;SDS011;15572;48.810;9.148;2023-03-01T18:11:05;26.47;;;16.30;;
28311;SDS011;15572;48.810;9.148;2023-03-01T18:16:03;29.33;;;17.40;;
28311;SDS011;15572;48.810;9.148;2023-03-01T18:21:02;33.63;;;16.90;;
28311;SDS011;15572;48.810;9.148;2023-03-01T18:26:00;33.13;;;18.10;;
28311;SDS011;15572;48.810;9.148;2023-03-01T18:30:58;29.80;;;16.80;;
28311;SDS011;15572;48.810;9.148;2023-03-01T18:35:56;29.37;;;17.47;;
28311;SDS011;15572;48.810;9.148;2023-03-01T18:40:54;34.23;;;17.87;;
28311;SDS011;15572;48.810;9.148;2023-03-01T18:45:54;33.27;;;17.60;;
28311;SDS011;15572;48.810;9.148;2023-03-01T18:50:52;32.00;;;18.10;;
28311;SDS011;15572;48.810;9.148;2023-03-01T18:55:48;32.97;;;18.07;;
28311;SDS011;15572;48.810;9.148;2023-03-01T19:00:47;30.40;;;17.23;;
28311;SDS011;15572;48.810;9.148;2023-03-01T19:05:43;28.97;;;16.43;;
28311;SDS011;15572;48.810;9.148;2023-03-01T19:10:40;29.07;;;16.93;;
28311;SDS011;15572;48.810;9.148;2023-03-01T19:15:38;32.50;;;17.67;;
28311;SDS011;15572;48.810;9.148;2023-03-01T19:20:36;33.23;;;17.87;;
28311;SDS011;15572;48.810;9.148;2023-03-01T19:25:32;30.13;;;16.60;;
28311;SDS011;15572;48.810;9.148;2023-03-01T19:30:28;28.50;;;16.77;;
28311;SDS011;15572;48.810;9.148;2023-03-01T19:35:25;31.80;;;16.33;;
28311;SDS011;15572;48.810;9.148;2023-03-01T19:45:56;35.17;;;17.80;;
28311;SDS011;15572;48.810;9.148;2023-03-01T19:51:01;37.50;;;18.27;;
28311;SDS011;15572;48.810;9.148;2023-03-01T19:55:59;31.20;;;17.27;;
28311;SDS011;15572;48.810;9.148;2023-03-01T20:00:57;33.63;;;17.50;;
28311;SDS011;15572;48.810;9.148;2023-03-01T20:05:54;32.67;;;17.73;;
28311;SDS011;15572;48.810;9.148;2023-03-01T20:10:52;29.67;;;16.73;;
28311;SDS011;15572;48.810;9.148;2023-03-01T20:15:50;35.57;;;18.07;;
28311;SDS011;15572;48.810;9.148;2023-03-01T20:20:47;32.70;;;17.63;;
28311;SDS011;15572;48.810;9.148;2023-03-01T20:25:44;31.40;;;17.17;;
28311;SDS011;15572;48.810;9.148;2023-03-01T20:30:42;31.03;;;18.07;;
28311;SDS011;15572;48.810;9.148;2023-03-01T20:35:41;29.67;;;16.53;;
28311;SDS011;15572;48.810;9.148;2023-03-01T20:40:38;32.20;;;17.27;;
28311;SDS011;15572;48.810;9.148;2023-03-01T20:45:36;31.97;;;17.80;;
28311;SDS011;15572;48.810;9.148;2023-03-01T20:50:32;33.57;;;17.60;;
28311;SDS011;15572;48.810;9.148;2023-03-01T20:55:30;34.63;;;17.90;;
28311;SDS011;15572;48.810;9.148;2023-03-01T21:00:28;34.23;;;16.87;;
28311;SDS011;15572;48.810;9.148;2023-03-01T21:05:24;35.77;;;16.73;;
28311;SDS011;15572;48.810;9.148;2023-03-01T21:10:21;31.90;;;16.53;;
28311;SDS011;15572;48.810;9.148;2023-03-01T21:15:18;31.67;;;17.97;;
28311;SDS011;15572;48.810;9.148;2023-03-01T21:20:16;29.00;;;16.37;;
28311;SDS011;15572;48.810;9.148;2023-03-01T21:25:13;31.47;;;17.57;;
28311;SDS011;15572;48.810;9.148;2023-03-01T21:30:10;31.40;;;17.77;;
28311;SDS011;15572;48.810;9.148;2023-03-01T21:35:09;36.47;;;16.83;;
28311;SDS011;15572;48.810;9.148;2023-03-01T21:40:06;31.93;;;17.00;;
28311;SDS011;15572;48.810;9.148;2023-03-01T21:45:04;28.47;;;16.27;;
28311;SDS011;15572;48.810;9.148;2023-03-01T21:50:02;32.03;;;17.07;;
28311;SDS011;15572;48.810;9.148;2023-03-01T21:55:00;31.67;;;16.47;;
28311;SDS011;15572;48.810;9.148;2023-03-01T21:59:57;30.37;;;16.70;;
28311;SDS011;15572;48.810;9.148;2023-03-01T22:04:53;30.97;;;17.13;;
28311;SDS011;15572;48.810;9.148;2023-03-01T22:09:51;32.40;;;16.57;;
28311;SDS011;15572;48.810;9.148;2023-03-01T22:14:49;29.77;;;16.93;;
28311;SDS011;15572;48.810;9.148;2023-03-01T22:19:45;31.80;;;17.93;;
28311;SDS011;15572;48.810;9.148;2023-03-01T22:24:42;34.00;;;18.43;;
28311;SDS011;15572;48.810;9.148;2023-03-01T22:29:38;33.50;;;18.70;;
28311;SDS011;15572;48.810;9.148;2023-03-01T22:34:36;37.10;;;17.43;;
28311;SDS011;15572;48.810;9.148;2023-03-01T22:39:32;33.53;;;17.93;;
28311;SDS011;15572;48.810;9.148;2023-03-01T22:44:29;36.67;;;18.33;;
28311;SDS011;15572;48.810;9.148;2023-03-01T22:49:25;33.10;;;17.73;;
28311;SDS011;15572;48.810;9.148;2023-03-01T22:54:23;34.00;;;17.23;;
28311;SDS011;15572;48.810;9.148;2023-03-01T22:59:20;32.63;;;17.17;;
28311;SDS011;15572;48.810;9.148;2023-03-01T23:04:18;33.10;;;17.77;;
28311;SDS011;15572;48.810;9.148;2023-03-01T23:09:15;35.20;;;18.23;;
28311;SDS011;15572;48.810;9.148;2023-03-01T23:14:15;32.03;;;17.27;;
28311;SDS011;15572;48.810;9.148;2023-03-01T23:19:11;34.57;;;18.37;;
28311;SDS011;15572;48.810;9.148;2023-03-01T23:24:10;39.10;;;19.17;;
28311;SDS011;15572;48.810;9.148;2023-03-01T23:29:07;35.50;;;18.53;;
28311;SDS011;15572;48.810;9.148;2023-03-01T23:34:05;32.47;;;17.23;;
28311;SDS011;15572;48.810;9.148;2023-03-01T23:39:02;35.53;;;17.77;;
28311;SDS011;15572;48.810;9.148;2023-03-01T23:44:02;36.93;;;18.60;;
28311;SDS011;15572;48.810;9.148;2023-03-01T23:49:00;36.97;;;18.00;;
28311;SDS011;15572;48.810;9.148;2023-03-01T23:53:59;32.50;;;17.63;;
28311;SDS011;15572;48.810;9.148;2023-03-01T23:59:00;33.37;;;18.80;;
